Time;durP1;ratioP1;P1;durP2;ratioP2;P2;SDS_P1;SDS_P2;PMS_P1;PMS_P2;Temp;Humidity;BMP_temperature;BMP_pressure;BME280_temperature;BME280_humidity;BME280_pressure;Samples;Min_cycle;Max_cycle;Signal;HPM_P1;HPM_P2
2022/09/07 00:00:44;;;;;;;8.20;6.70;;;16.70;78.70;;;;;;5023987;28;20033;-46
2022/09/07 00:03:11;;;;;;;9.20;7.43;;;16.70;78.80;;;;;;5026466;28;20038;-51
2022/09/07 00:05:46;;;;;;;7.80;6.57;;;16.70;78.60;;;;;;5022700;28;20065;-47
2022/09/07 00:08:14;;;;;;;8.52;7.72;;;16.70;78.70;;;;;;5008585;28;20023;-49
2022/09/07 00:10:55;;;;;;;10.57;7.18;;;16.70;78.80;;;;;;5010735;28;20022;-48
2022/09/07 00:13:23;;;;;;;11.20;7.60;;;16.70;78.90;;;;;;5010151;28;20627;-46
2022/09/07 00:15:50;;;;;;;9.23;7.22;;;16.70;78.90;;;;;;5019212;28;20057;-45
2022/09/07 00:18:17;;;;;;;9.82;7.20;;;16.70;78.70;;;;;;5023656;28;20041;-48
2022/09/07 00:20:44;;;;;;;10.43;6.65;;;16.70;78.80;;;;;;5024299;28;20033;-47
2022/09/07 00:23:10;;;;;;;10.55;7.68;;;16.80;78.70;;;;;;5027982;28;20029;-49
2022/09/07 00:25:43;;;;;;;8.90;6.80;;;16.70;78.90;;;;;;5013381;28;20041;-47
2022/09/07 00:28:09;;;;;;;10.77;7.70;;;16.80;78.90;;;;;;5028651;28;20038;-48
2022/09/07 00:30:41;;;;;;;9.15;7.32;;;16.70;78.60;;;;;;5024980;28;20105;-46
2022/09/07 00:33:10;;;;;;;9.27;7.18;;;16.70;78.70;;;;;;5018912;28;20029;-46
2022/09/07 00:35:45;;;;;;;11.10;7.53;;;16.70;78.90;;;;;;5012708;28;20479;-47
2022/09/07 00:38:12;;;;;;;11.05;7.00;;;16.70;79.00;;;;;;5012199;28;20048;-47
2022/09/07 00:40:41;;;;;;;20.73;7.28;;;16.70;79.00;;;;;;5013053;28;20741;-49
2022/09/07 00:43:31;;;;;;;9.13;7.03;;;16.70;79.00;;;;;;5014950;28;20065;-48
2022/09/07 00:45:56;;;;;;;11.70;6.72;;;16.70;79.10;;;;;;5011371;28;20057;-46
2022/09/07 00:48:30;;;;;;;11.05;6.90;;;16.60;79.20;;;;;;5017893;28;20033;-46
2022/09/07 00:51:00;;;;;;;8.30;7.38;;;16.70;79.40;;;;;;5016319;28;20036;-46
2022/09/07 00:53:48;;;;;;;9.43;7.43;;;16.70;79.20;;;;;;5030505;28;20026;-46
2022/09/07 00:56:15;;;;;;;11.90;7.03;;;16.70;79.00;;;;;;5026347;28;20087;-46
2022/09/07 00:58:43;;;;;;;13.20;7.65;;;16.70;79.10;;;;;;5029112;28;20038;-46
2022/09/07 01:01:10;;;;;;;7.35;6.65;;;16.70;79.10;;;;;;5023817;28;20131;-46
2022/09/07 01:03:41;;;;;;;8.63;7.60;;;16.70;79.20;;;;;;5033662;28;20048;-47
2022/09/07 01:06:26;;;;;;;9.88;7.18;;;16.70;79.20;;;;;;5021601;28;20067;-47
2022/09/07 01:08:55;;;;;;;8.80;7.07;;;16.70;79.30;;;;;;5014293;28;20467;-46
2022/09/07 01:11:23;;;;;;;8.05;6.57;;;16.70;79.50;;;;;;5019384;28;20022;-46
2022/09/07 01:13:53;;;;;;;8.13;7.13;;;16.70;79.70;;;;;;5012672;28;20022;-47
2022/09/07 01:16:38;;;;;;;7.70;6.90;;;16.70;79.70;;;;;;5024574;28;20050;-46
2022/09/07 01:19:41;;;;;;;10.10;7.05;;;16.70;79.70;;;;;;5029383;28;20030;-47
2022/09/07 01:22:28;;;;;;;10.48;7.28;;;16.70;79.50;;;;;;5015108;28;20161;-47
2022/09/07 01:25:21;;;;;;;7.80;6.38;;;16.70;79.30;;;;;;5010388;28;20109;-47
2022/09/07 01:28:17;;;;;;;11.52;7.40;;;16.70;79.30;;;;;;5017729;28;20333;-46
2022/09/07 01:31:10;;;;;;;7.75;7.03;;;16.70;79.20;;;;;;5020780;28;20033;-48
2022/09/07 01:33:43;;;;;;;11.00;7.15;;;16.70;79.30;;;;;;5030525;28;20498;-46
2022/09/07 01:36:17;;;;;;;9.73;7.45;;;16.70;79.20;;;;;;5015699;28;20026;-46
2022/09/07 01:38:57;;;;;;;8.35;7.18;;;16.70;79.10;;;;;;5010933;28;20104;-49
2022/09/07 01:41:48;;;;;;;10.55;7.32;;;16.60;79.50;;;;;;5016584;28;20041;-48
2022/09/07 01:44:38;;;;;;;8.43;7.53;;;16.60;79.40;;;;;;5014300;28;20040;-48
2022/09/07 01:47:21;;;;;;;11.70;7.43;;;16.60;79.30;;;;;;5010176;28;20033;-46
2022/09/07 01:50:14;;;;;;;10.15;7.05;;;16.60;79.40;;;;;;5017773;28;20113;-49
2022/09/07 01:52:43;;;;;;;9.15;6.78;;;16.60;79.40;;;;;;5027483;28;20470;-47
2022/09/07 01:55:33;;;;;;;7.93;7.13;;;16.60;79.50;;;;;;5013766;28;20025;-50
2022/09/07 01:58:11;;;;;;;12.18;7.45;;;16.60;79.60;;;;;;5014072;28;20038;-48
2022/09/07 02:00:49;;;;;;;7.50;6.80;;;16.70;79.60;;;;;;5012917;28;20037;-46
2022/09/07 02:03:43;;;;;;;11.85;7.10;;;16.60;79.50;;;;;;5010725;28;20029;-50
2022/09/07 02:06:40;;;;;;;10.55;8.30;;;16.70;79.40;;;;;;5018487;28;20465;-47
2022/09/07 02:09:13;;;;;;;9.95;7.25;;;16.60;79.50;;;;;;5028442;28;20368;-47
2022/09/07 02:11:45;;;;;;;9.27;8.00;;;16.60;79.60;;;;;;5020662;28;20386;-47
2022/09/07 02:14:39;;;;;;;9.73;7.13;;;16.70;79.90;;;;;;5011777;28;20018;-47
2022/09/07 02:17:40;;;;;;;8.50;6.90;;;16.60;80.00;;;;;;5013359;28;20034;-47
2022/09/07 02:20:14;;;;;;;7.63;6.47;;;16.60;80.20;;;;;;5008515;28;20030;-48
2022/09/07 02:22:49;;;;;;;8.15;7.25;;;16.60;80.20;;;;;;5024293;28;20029;-47
2022/09/07 02:25:21;;;;;;;8.18;6.85;;;16.60;80.20;;;;;;5020391;28;20018;-46
2022/09/07 02:27:52;;;;;;;9.48;7.97;;;16.60;80.30;;;;;;5019029;28;20039;-47
2022/09/07 02:30:19;;;;;;;9.73;7.22;;;16.60;80.30;;;;;;5024797;28;20037;-47
2022/09/07 02:32:46;;;;;;;8.90;7.30;;;16.60;80.30;;;;;;5013540;28;20037;-46
2022/09/07 02:35:13;;;;;;;9.57;7.35;;;16.50;80.60;;;;;;5015247;28;20030;-48
2022/09/07 02:37:42;;;;;;;9.05;8.15;;;16.60;80.70;;;;;;5011766;28;20368;-48
2022/09/07 02:40:10;;;;;;;9.90;7.93;;;16.60;80.50;;;;;;5009673;28;20041;-47
2022/09/07 02:42:37;;;;;;;8.30;7.40;;;16.50;80.60;;;;;;5018432;28;20512;-49
2022/09/07 02:45:08;;;;;;;8.60;7.55;;;16.50;80.50;;;;;;5022938;28;20045;-46
2022/09/07 02:48:01;;;;;;;12.75;8.98;;;16.50;80.60;;;;;;5017825;28;20089;-46
2022/09/07 02:50:55;;;;;;;8.40;7.18;;;16.50;80.70;;;;;;5024160;28;20029;-46
2022/09/07 02:53:40;;;;;;;9.73;7.88;;;16.50;80.90;;;;;;5008555;28;20021;-46
2022/09/07 02:56:18;;;;;;;8.93;8.02;;;16.50;80.90;;;;;;5016501;28;20026;-47
2022/09/07 02:59:11;;;;;;;11.38;8.05;;;16.50;80.60;;;;;;5009098;28;20084;-46
2022/09/07 03:02:07;;;;;;;10.93;8.18;;;16.40;80.60;;;;;;5010704;28;20037;-47
2022/09/07 03:05:03;;;;;;;8.93;7.40;;;16.50;80.70;;;;;;5026633;28;20137;-47
2022/09/07 03:07:43;;;;;;;9.30;8.00;;;16.50;80.50;;;;;;5010204;28;20030;-48
2022/09/07 03:10:12;;;;;;;7.40;6.55;;;16.60;80.50;;;;;;5007136;28;20022;-47
2022/09/07 03:12:48;;;;;;;9.95;8.20;;;16.50;80.50;;;;;;5008637;28;20027;-47
2022/09/07 03:15:21;;;;;;;10.25;7.75;;;16.50;80.60;;;;;;5018248;28;20048;-46
2022/09/07 03:17:48;;;;;;;9.60;8.70;;;16.50;80.70;;;;;;5015353;28;20100;-46
2022/09/07 03:20:17;;;;;;;10.00;8.02;;;16.50;80.80;;;;;;5009060;28;20041;-47
2022/09/07 03:22:45;;;;;;;;;;;16.50;80.80;;;;;;5019523;28;20041;-50
2022/09/07 03:25:12;;;;;;;9.27;8.30;;;16.50;81.00;;;;;;5026331;28;19963;-46
2022/09/07 03:27:38;;;;;;;12.00;8.77;;;16.40;81.20;;;;;;5008314;28;20459;-51
2022/09/07 03:30:07;;;;;;;10.07;8.65;;;16.40;81.50;;;;;;5012128;28;20030;-46
2022/09/07 03:32:36;;;;;;;10.25;8.93;;;16.40;81.60;;;;;;5017929;28;20367;-46
2022/09/07 03:35:05;;;;;;;9.27;7.93;;;16.40;81.60;;;;;;5008750;28;20017;-46
2022/09/07 03:37:35;;;;;;;10.45;8.30;;;16.40;81.70;;;;;;5009989;28;20276;-46
2022/09/07 03:40:03;;;;;;;;;;;16.40;81.80;;;;;;5040345;28;20045;-46
2022/09/07 03:42:32;;;;;;;10.95;9.25;;;16.40;82.00;;;;;;5007927;28;19913;-48
2022/09/07 03:44:59;;;;;;;9.90;9.00;;;16.40;81.70;;;;;;5008616;28;20052;-46
2022/09/07 03:47:28;;;;;;;11.00;9.88;;;16.40;81.90;;;;;;5015316;28;20041;-46
2022/09/07 03:49:58;;;;;;;9.73;8.73;;;16.40;82.00;;;;;;5032929;28;20025;-46
2022/09/07 03:52:24;;;;;;;10.77;9.68;;;16.40;82.00;;;;;;5021315;28;20037;-47
2022/09/07 03:54:51;;;;;;;10.35;9.30;;;16.40;81.80;;;;;;5022715;28;20156;-48
2022/09/07 03:57:21;;;;;;;10.63;9.60;;;16.40;82.00;;;;;;5012440;28;20074;-46
2022/09/07 03:59:51;;;;;;;12.43;9.90;;;16.40;82.20;;;;;;5012221;28;20026;-47
2022/09/07 04:02:18;;;;;;;;;;;16.40;81.90;;;;;;5012744;28;20051;-47
2022/09/07 04:04:47;;;;;;;10.35;9.35;;;16.40;82.00;;;;;;5030574;28;19920;-47
2022/09/07 04:07:14;;;;;;;11.15;10.05;;;16.40;82.20;;;;;;5028594;28;20033;-46
2022/09/07 04:09:41;;;;;;;13.15;11.93;;;16.40;82.30;;;;;;5026207;28;20036;-47
2022/09/07 04:12:10;;;;;;;11.48;10.27;;;16.40;82.80;;;;;;5031435;28;20331;-49
2022/09/07 04:14:37;;;;;;;13.63;12.23;;;16.40;83.20;;;;;;5031981;28;20065;-63
2022/09/07 04:17:04;;;;;;;16.67;12.95;;;16.40;83.90;;;;;;5023127;28;20264;-62
2022/09/07 04:19:31;;;;;;;14.18;12.77;;;16.30;84.50;;;;;;5029399;28;20040;-63
2022/09/07 04:21:58;;;;;;;14.30;13.00;;;16.20;85.20;;;;;;5021694;28;20661;-65
2022/09/07 04:24:30;;;;;;;15.43;13.88;;;16.10;85.80;;;;;;5036822;28;20462;-65
2022/09/07 04:26:55;;;;;;;19.85;15.68;;;16.00;86.60;;;;;;5038258;28;20045;-65
2022/09/07 04:29:22;;;;;;;20.90;15.52;;;15.90;87.60;;;;;;5038468;28;20075;-65
2022/09/07 04:31:50;;;;;;;19.35;17.42;;;15.80;88.10;;;;;;5039244;28;20352;-64
2022/09/07 04:34:16;;;;;;;18.83;17.00;;;15.60;88.50;;;;;;5035542;28;20021;-65
2022/09/07 04:36:43;;;;;;;19.35;17.15;;;15.60;88.90;;;;;;5038824;28;20036;-66
2022/09/07 04:39:10;;;;;;;19.60;17.60;;;15.60;89.40;;;;;;5016116;28;20033;-65
2022/09/07 04:41:37;;;;;;;21.50;19.42;;;15.60;89.40;;;;;;5011741;28;20030;-64
2022/09/07 04:44:06;;;;;;;20.63;18.48;;;15.50;89.60;;;;;;5016353;28;20048;-63
2022/09/07 04:46:35;;;;;;;22.63;19.48;;;15.40;89.70;;;;;;5023133;28;20418;-62
2022/09/07 04:49:09;;;;;;;20.25;18.15;;;15.40;90.20;;;;;;5013295;28;20060;-62
2022/09/07 04:51:38;;;;;;;21.80;19.80;;;15.30;90.10;;;;;;5014517;28;20030;-60
2022/09/07 04:54:06;;;;;;;21.00;18.88;;;15.30;90.40;;;;;;5016087;28;20032;-62
2022/09/07 04:56:33;;;;;;;19.90;18.00;;;15.30;90.60;;;;;;5015079;28;20487;-60
2022/09/07 04:59:01;;;;;;;21.92;19.92;;;15.30;90.70;;;;;;5020917;28;20112;-59
2022/09/07 05:01:26;;;;;;;22.55;18.85;;;15.30;90.80;;;;;;5020444;28;20033;-57
2022/09/07 05:03:54;;;;;;;23.60;21.23;;;15.30;90.80;;;;;;5011140;28;20157;-55
2022/09/07 05:06:22;;;;;;;21.92;19.63;;;15.20;90.90;;;;;;5035351;28;20039;-57
2022/09/07 05:08:52;;;;;;;23.35;21.10;;;15.20;91.20;;;;;;5015451;28;20029;-58
2022/09/07 05:11:21;;;;;;;22.58;20.45;;;15.30;91.20;;;;;;5038081;28;20527;-65
2022/09/07 05:13:51;;;;;;;24.17;21.87;;;15.30;91.30;;;;;;5036858;28;20025;-62
2022/09/07 05:16:22;;;;;;;23.30;20.92;;;15.30;91.30;;;;;;5034547;28;20021;-61
2022/09/07 05:18:57;;;;;;;23.48;21.13;;;15.30;91.30;;;;;;5030643;28;20667;-59
2022/09/07 05:21:27;;;;;;;22.60;20.50;;;15.20;91.40;;;;;;5034802;28;20033;-52
2022/09/07 05:23:56;;;;;;;21.38;19.45;;;15.30;91.60;;;;;;5012517;28;20038;-64
2022/09/07 05:26:26;;;;;;;22.52;20.17;;;15.30;91.60;;;;;;5010828;28;20030;-48
2022/09/07 05:28:53;;;;;;;33.33;23.75;;;15.20;91.40;;;;;;5029788;28;20038;-64
2022/09/07 05:31:24;;;;;;;29.52;23.98;;;15.20;91.60;;;;;;5031123;28;20036;-62
2022/09/07 05:33:57;;;;;;;26.98;23.20;;;15.20;91.90;;;;;;5027207;28;20030;-61
2022/09/07 05:36:26;;;;;;;31.65;26.52;;;15.30;92.20;;;;;;5028197;28;20057;-51
2022/09/07 05:38:54;;;;;;;28.55;25.50;;;15.30;92.50;;;;;;5026689;28;20045;-60
2022/09/07 05:41:23;;;;;;;30.25;27.13;;;15.40;92.60;;;;;;5026869;28;20158;-61
2022/09/07 05:43:52;;;;;;;29.90;26.80;;;15.40;92.70;;;;;;5046104;28;20111;-57
2022/09/07 05:46:22;;;;;;;32.00;28.33;;;15.40;92.80;;;;;;5011311;28;20053;-53
2022/09/07 05:48:49;;;;;;;29.20;25.23;;;15.40;92.80;;;;;;5015436;28;20947;-53
2022/09/07 05:51:18;;;;;;;31.27;27.52;;;15.50;93.00;;;;;;5019350;28;20816;-50
2022/09/07 05:53:46;;;;;;;30.45;27.38;;;15.60;93.00;;;;;;5028527;28;20030;-49
2022/09/07 05:56:13;;;;;;;28.85;25.92;;;15.60;92.90;;;;;;5026237;28;20031;-50
2022/09/07 05:58:40;;;;;;;27.25;24.58;;;15.60;92.80;;;;;;5045686;28;20035;-50
2022/09/07 06:01:12;;;;;;;26.60;24.15;;;15.50;92.60;;;;;;5021520;28;20148;-49
2022/09/07 06:03:43;;;;;;;28.13;25.48;;;15.60;92.80;;;;;;5018809;28;20048;-52
2022/09/07 06:06:10;;;;;;;30.15;27.15;;;15.50;92.70;;;;;;5026806;28;20035;-52
2022/09/07 06:08:43;;;;;;;29.17;26.48;;;15.50;92.70;;;;;;5029959;28;20101;-51
2022/09/07 06:11:12;;;;;;;28.52;25.85;;;15.50;92.80;;;;;;5028367;28;20036;-49
2022/09/07 06:13:40;;;;;;;30.77;28.00;;;15.60;92.90;;;;;;5026077;28;20049;-49
2022/09/07 06:16:08;;;;;;;30.35;27.27;;;15.60;92.90;;;;;;5017307;28;20030;-49
2022/09/07 06:18:44;;;;;;;28.90;26.35;;;15.70;92.90;;;;;;5018472;28;20052;-50
2022/09/07 06:21:28;;;;;;;29.67;26.98;;;15.70;92.90;;;;;;5015155;28;20045;-51
2022/09/07 06:23:54;;;;;;;31.90;27.92;;;15.70;93.00;;;;;;5037745;28;20043;-50
2022/09/07 06:26:21;;;;;;;29.08;25.92;;;15.80;93.00;;;;;;5026163;28;20029;-51
2022/09/07 06:28:47;;;;;;;27.90;24.90;;;15.80;92.90;;;;;;5023384;28;20057;-49
2022/09/07 06:31:17;;;;;;;28.85;25.67;;;15.80;92.90;;;;;;5017234;28;20037;-50
2022/09/07 06:33:46;;;;;;;28.23;25.63;;;15.90;92.90;;;;;;5020562;28;20374;-50
2022/09/07 06:36:17;;;;;;;29.65;25.92;;;15.90;93.00;;;;;;5030498;28;20064;-49
2022/09/07 06:38:45;;;;;;;27.30;24.48;;;15.90;93.00;;;;;;5023100;28;20415;-48
2022/09/07 06:41:15;;;;;;;29.42;24.15;;;15.90;92.90;;;;;;5018746;28;20038;-49
2022/09/07 06:43:43;;;;;;;27.55;24.75;;;16.00;92.90;;;;;;5030988;28;20021;-52
2022/09/07 06:46:10;;;;;;;33.67;23.95;;;15.90;92.80;;;;;;5030606;28;20136;-51
2022/09/07 06:48:38;;;;;;;23.60;21.35;;;15.90;92.80;;;;;;5024768;28;20493;-49
2022/09/07 06:51:28;;;;;;;25.30;22.70;;;15.90;92.70;;;;;;5016980;28;20018;-53
2022/09/07 06:53:55;;;;;;;28.95;23.75;;;15.90;92.70;;;;;;5016934;28;20511;-48
2022/09/07 06:56:26;;;;;;;24.88;22.13;;;15.90;92.60;;;;;;5026875;28;20111;-48
2022/09/07 06:58:57;;;;;;;26.60;22.83;;;15.90;92.50;;;;;;5010142;28;20037;-53
2022/09/07 07:01:24;;;;;;;26.08;23.42;;;15.90;92.50;;;;;;5014847;28;20360;-50
2022/09/07 07:03:52;;;;;;;24.77;22.40;;;15.90;92.50;;;;;;5012360;28;20030;-48
2022/09/07 07:06:19;;;;;;;26.20;23.27;;;15.90;92.40;;;;;;5025711;28;20216;-50
2022/09/07 07:08:52;;;;;;;26.08;23.15;;;15.90;92.30;;;;;;5024484;28;20622;-49
2022/09/07 07:11:19;;;;;;;23.60;21.10;;;15.90;92.40;;;;;;5027567;28;20056;-50
2022/09/07 07:13:45;;;;;;;24.77;22.27;;;16.00;92.40;;;;;;5014707;28;20026;-50
2022/09/07 07:16:15;;;;;;;23.35;21.35;;;16.00;92.20;;;;;;5031103;28;20135;-48
2022/09/07 07:18:42;;;;;;;24.95;22.65;;;15.90;92.20;;;;;;5037775;28;20156;-49
2022/09/07 07:21:14;;;;;;;23.90;21.73;;;15.90;92.00;;;;;;5031448;28;20593;-48
2022/09/07 07:23:43;;;;;;;21.95;20.02;;;16.00;92.00;;;;;;5032641;28;20029;-47
2022/09/07 07:26:14;;;;;;;24.20;22.05;;;16.00;91.90;;;;;;5035556;28;20034;-48
2022/09/07 07:28:46;;;;;;;24.70;22.50;;;16.10;91.90;;;;;;5023287;28;20482;-47
2022/09/07 07:31:14;;;;;;;22.85;20.73;;;16.30;92.00;;;;;;5021690;28;20104;-47
2022/09/07 07:33:42;;;;;;;25.13;22.85;;;16.50;92.20;;;;;;5023153;28;20025;-49
2022/09/07 07:36:11;;;;;;;23.52;21.30;;;16.70;92.00;;;;;;5284567;23;20050;-95
2022/09/07 07:38:39;;;;;;;22.35;20.25;;;16.80;91.50;;;;;;5032250;28;20018;-94
2022/09/07 07:41:05;;;;;;;22.05;20.25;;;17.00;91.40;;;;;;5019702;28;20022;-95
2022/09/07 07:43:31;;;;;;;23.05;20.80;;;17.10;91.20;;;;;;5027106;23;20161;-45
2022/09/07 07:45:58;;;;;;;21.92;19.92;;;17.20;90.80;;;;;;5008137;28;20049;-45
2022/09/07 07:48:27;;;;;;;19.92;18.13;;;17.30;90.40;;;;;;5018970;28;20461;-45
2022/09/07 07:50:58;;;;;;;21.45;19.48;;;17.50;90.50;;;;;;5003093;28;20026;-44
2022/09/07 07:53:24;;;;;;;19.25;17.50;;;17.70;89.70;;;;;;4997916;28;20442;-45
2022/09/07 07:55:50;;;;;;;17.08;15.52;;;18.00;89.40;;;;;;5008385;28;20051;-46
2022/09/07 07:58:16;;;;;;;16.63;15.15;;;18.30;89.20;;;;;;5008292;28;20477;-45
2022/09/07 08:00:42;;;;;;;17.05;15.55;;;18.30;87.90;;;;;;5004512;28;20057;-44
2022/09/07 08:03:08;;;;;;;15.80;14.40;;;18.40;87.50;;;;;;5002600;28;20061;-46
2022/09/07 08:05:36;;;;;;;15.07;13.60;;;18.60;87.60;;;;;;5004434;28;20029;-45
2022/09/07 08:08:03;;;;;;;14.43;13.23;;;18.60;87.70;;;;;;5004425;28;20030;-45
2022/09/07 08:10:29;;;;;;;15.30;13.68;;;18.40;87.30;;;;;;5009269;28;20676;-48
2022/09/07 08:12:55;;;;;;;15.40;14.13;;;18.20;86.50;;;;;;4999074;28;20041;-44
2022/09/07 08:15:22;;;;;;;14.05;12.70;;;18.30;86.90;;;;;;5008173;28;20037;-45
2022/09/07 08:17:48;;;;;;;15.27;13.85;;;18.30;87.50;;;;;;5006531;28;20132;-44
2022/09/07 08:20:15;;;;;;;14.45;13.18;;;18.30;87.90;;;;;;5005308;28;20042;-46
2022/09/07 08:22:41;;;;;;;15.85;14.55;;;18.40;88.00;;;;;;4995137;28;20446;-44
2022/09/07 08:25:09;;;;;;;16.42;14.82;;;18.40;88.20;;;;;;5007819;28;20389;-46
2022/09/07 08:27:35;;;;;;;15.02;13.70;;;18.40;87.70;;;;;;5022125;28;20034;-43
2022/09/07 08:30:02;;;;;;;14.73;13.32;;;18.40;87.80;;;;;;5004119;28;20029;-44
2022/09/07 08:32:36;;;;;;;14.93;13.52;;;18.50;88.20;;;;;;5008520;28;20045;-45
2022/09/07 08:35:02;;;;;;;14.98;13.57;;;18.60;87.90;;;;;;5011159;28;20026;-44
2022/09/07 08:37:28;;;;;;;16.20;14.70;;;18.60;87.70;;;;;;5009305;28;20044;-45
2022/09/07 08:39:54;;;;;;;14.52;13.23;;;18.70;87.70;;;;;;5011033;28;20105;-45
2022/09/07 08:42:32;;;;;;;15.55;14.10;;;18.70;87.40;;;;;;5023033;28;20124;-48
2022/09/07 08:45:10;;;;;;;14.40;13.10;;;18.60;87.20;;;;;;5006235;28;20056;-46
2022/09/07 08:47:49;;;;;;;15.85;14.23;;;18.60;86.80;;;;;;5008834;28;20474;-44
2022/09/07 08:50:25;;;;;;;16.08;14.55;;;18.50;86.70;;;;;;5012389;28;20040;-46
2022/09/07 08:53:00;;;;;;;15.50;13.93;;;18.50;86.90;;;;;;5017921;28;20026;-46
2022/09/07 08:55:48;;;;;;;13.55;12.35;;;18.60;87.00;;;;;;4995324;28;20057;-45
2022/09/07 08:58:31;;;;;;;14.25;12.77;;;18.80;87.60;;;;;;5002387;28;20040;-46
2022/09/07 09:00:59;;;;;;;14.40;12.95;;;19.10;87.00;;;;;;5015376;28;20034;-46
2022/09/07 09:03:26;;;;;;;13.70;12.43;;;19.30;86.00;;;;;;5004758;28;20331;-47
2022/09/07 09:06:09;;;;;;;13.38;12.20;;;19.40;85.90;;;;;;5016743;28;20061;-46
2022/09/07 09:08:49;;;;;;;13.52;12.30;;;19.50;84.20;;;;;;5008358;28;20422;-46
2022/09/07 09:11:33;;;;;;;13.40;11.88;;;19.70;84.70;;;;;;5007197;28;20021;-46
2022/09/07 09:14:17;;;;;;;14.40;13.00;;;19.80;84.10;;;;;;5012923;28;20046;-46
2022/09/07 09:16:48;;;;;;;13.73;12.30;;;19.90;83.30;;;;;;5011184;28;20033;-46
2022/09/07 09:19:41;;;;;;;13.38;12.07;;;19.90;82.00;;;;;;5021168;28;20049;-46
2022/09/07 09:22:27;;;;;;;14.10;12.70;;;19.90;82.60;;;;;;5006187;28;20358;-46
2022/09/07 09:25:12;;;;;;;14.27;12.95;;;19.90;82.70;;;;;;4999350;28;20443;-47
2022/09/07 09:27:39;;;;;;;13.63;12.25;;;19.80;82.20;;;;;;5008854;28;20030;-47
2022/09/07 09:30:13;;;;;;;12.93;11.82;;;19.90;83.20;;;;;;5005953;28;20092;-47
2022/09/07 09:32:41;;;;;;;13.80;12.43;;;20.00;83.10;;;;;;4996813;28;20495;-47
2022/09/07 09:35:31;;;;;;;12.50;11.40;;;20.10;81.70;;;;;;5008147;28;20032;-47
2022/09/07 09:38:06;;;;;;;12.85;11.73;;;20.00;81.50;;;;;;4999950;28;20734;-46
2022/09/07 09:40:51;;;;;;;12.75;11.52;;;20.20;81.90;;;;;;5001330;28;20354;-47
2022/09/07 09:43:36;;;;;;;12.43;11.20;;;20.50;81.70;;;;;;5005749;28;20520;-47
2022/09/07 09:46:14;;;;;;;13.18;11.63;;;20.90;80.90;;;;;;5002108;28;20133;-49
2022/09/07 09:48:48;;;;;;;11.57;10.48;;;21.10;79.30;;;;;;5001551;28;20474;-47
2022/09/07 09:51:15;;;;;;;11.20;10.18;;;21.10;79.50;;;;;;5008188;28;20163;-47
2022/09/07 09:53:55;;;;;;;12.90;10.90;;;21.30;80.20;;;;;;5005580;28;20042;-48
2022/09/07 09:56:22;;;;;;;12.57;11.35;;;21.40;79.00;;;;;;5020699;28;20105;-52
2022/09/07 09:58:48;;;;;;;10.80;9.80;;;21.40;78.00;;;;;;5020670;28;20048;-47
2022/09/07 10:01:29;;;;;;;11.20;10.02;;;21.60;78.20;;;;;;4998528;28;20041;-48
2022/09/07 10:03:55;;;;;;;10.70;9.60;;;21.80;77.80;;;;;;5001881;28;20030;-48
2022/09/07 10:06:23;;;;;;;10.90;9.90;;;21.90;77.40;;;;;;5001843;28;20037;-47
2022/09/07 10:09:16;;;;;;;10.43;9.43;;;22.20;75.80;;;;;;5004451;28;20064;-48
2022/09/07 10:11:43;;;;;;;11.15;8.10;;;22.20;75.90;;;;;;5002400;28;20023;-51
2022/09/07 10:14:24;;;;;;;9.00;8.20;;;22.50;76.50;;;;;;5004644;28;20114;-48
2022/09/07 10:16:50;;;;;;;9.82;8.98;;;22.60;74.30;;;;;;5007499;28;20029;-48
2022/09/07 10:19:33;;;;;;;10.20;9.10;;;22.60;73.70;;;;;;5007559;28;20073;-47
2022/09/07 10:22:35;;;;;;;11.65;9.50;;;22.90;74.50;;;;;;5003906;28;20034;-51
2022/09/07 10:25:23;;;;;;;10.13;9.02;;;22.90;73.70;;;;;;5002504;28;20342;-47
2022/09/07 10:28:23;;;;;;;11.63;9.60;;;22.40;74.70;;;;;;5006274;28;20038;-47
2022/09/07 10:31:10;;;;;;;9.05;7.75;;;22.20;75.10;;;;;;4998916;28;20435;-48
2022/09/07 10:33:44;;;;;;;11.07;9.50;;;22.40;76.90;;;;;;5005633;28;20105;-47
2022/09/07 10:36:23;;;;;;;10.85;9.75;;;22.50;75.90;;;;;;5001087;28;20026;-47
2022/09/07 10:39:03;;;;;;;11.13;10.02;;;22.80;74.20;;;;;;5000768;28;20037;-50
2022/09/07 10:41:54;;;;;;;11.57;10.57;;;23.10;73.50;;;;;;5000662;28;20033;-48
2022/09/07 10:44:37;;;;;;;10.40;8.38;;;23.20;72.10;;;;;;5005292;28;20050;-49
2022/09/07 10:47:15;;;;;;;8.50;7.72;;;23.40;71.30;;;;;;5013452;28;20416;-47
2022/09/07 10:50:20;;;;;;;9.57;8.68;;;23.60;71.10;;;;;;5003753;28;20084;-48
2022/09/07 10:53:08;;;;;;;6.65;5.95;;;23.90;71.80;;;;;;4998779;28;20056;-49
2022/09/07 10:55:42;;;;;;;10.52;9.00;;;24.00;68.10;;;;;;5002735;28;20026;-47
2022/09/07 10:58:33;;;;;;;10.43;9.52;;;23.60;68.50;;;;;;4997606;28;20033;-52
2022/09/07 11:01:05;;;;;;;10.68;9.35;;;23.10;69.80;;;;;;5002228;28;20038;-50
2022/09/07 11:04:10;;;;;;;11.20;10.10;;;22.90;71.30;;;;;;4998469;28;20025;-49
2022/09/07 11:06:42;;;;;;;12.27;11.07;;;22.50;72.90;;;;;;5000276;28;20030;-49
2022/09/07 11:09:49;;;;;;;11.57;10.55;;;22.30;73.50;;;;;;5000944;28;20030;-47
2022/09/07 11:12:34;;;;;;;13.73;12.43;;;22.10;74.70;;;;;;5000306;28;20027;-49
2022/09/07 11:15:11;;;;;;;10.40;9.35;;;21.80;74.40;;;;;;4998601;28;20109;-47
2022/09/07 11:18:05;;;;;;;11.57;10.48;;;22.10;75.00;;;;;;4996849;28;20026;-48
2022/09/07 11:20:38;;;;;;;11.23;10.05;;;22.40;75.90;;;;;;5000772;28;20026;-52
2022/09/07 11:23:42;;;;;;;11.70;10.70;;;22.40;74.10;;;;;;5014833;28;20031;-49
2022/09/07 11:26:26;;;;;;;12.18;11.07;;;22.30;73.50;;;;;;5014987;28;20030;-48
2022/09/07 11:29:15;;;;;;;10.65;9.68;;;22.10;73.60;;;;;;5000754;28;20034;-47
2022/09/07 11:31:44;;;;;;;;;;;21.90;73.80;;;;;;4997911;28;20057;-49
2022/09/07 11:34:29;;;;;;;9.40;8.43;;;21.70;75.10;;;;;;4997100;28;19909;-50
2022/09/07 11:37:05;;;;;;;8.15;6.30;;;21.60;75.10;;;;;;5000702;28;20038;-51
2022/09/07 11:39:42;;;;;;;7.05;6.30;;;21.70;75.20;;;;;;4999799;28;20362;-47
2022/09/07 11:42:19;;;;;;;6.97;6.35;;;21.70;75.90;;;;;;4995449;28;20113;-50
2022/09/07 11:45:23;;;;;;;8.95;6.32;;;21.80;75.30;;;;;;5008221;28;20656;-50
2022/09/07 11:48:13;;;;;;;15.40;8.77;;;21.80;74.80;;;;;;5000744;28;20050;-49
2022/09/07 11:50:46;;;;;;;8.77;7.97;;;21.60;74.70;;;;;;5011844;28;20033;-47
2022/09/07 11:53:25;;;;;;;10.02;8.65;;;21.60;75.20;;;;;;4997307;28;20050;-48
2022/09/07 11:56:01;;;;;;;11.48;10.32;;;21.80;75.30;;;;;;5014157;28;20443;-49
2022/09/07 11:59:01;;;;;;;11.90;10.82;;;21.90;75.10;;;;;;4999708;28;20523;-49
2022/09/07 12:02:21;;;;;;;10.77;9.88;;;21.80;74.80;;;;;;5016699;28;20047;-51
2022/09/07 12:05:21;;;;;;;12.82;11.73;;;21.90;75.10;;;;;;5005930;28;20133;-47
2022/09/07 12:08:15;;;;;;;12.07;11.07;;;21.90;75.40;;;;;;5019986;28;20040;-51
2022/09/07 12:11:06;;;;;;;9.80;8.90;;;22.20;74.90;;;;;;5010840;28;20041;-48
2022/09/07 12:14:10;;;;;;;13.25;12.13;;;22.40;74.20;;;;;;5007487;28;20117;-48
2022/09/07 12:17:27;;;;;;;10.77;9.88;;;22.70;72.50;;;;;;5011597;28;20041;-46
2022/09/07 12:20:30;;;;;;;11.77;9.75;;;22.90;72.30;;;;;;5009944;28;20774;-47
2022/09/07 12:23:27;;;;;;;12.48;11.07;;;23.10;72.10;;;;;;5000799;28;20025;-51
2022/09/07 12:26:32;;;;;;;12.85;11.65;;;23.30;71.80;;;;;;5005174;28;20057;-46
2022/09/07 12:29:03;;;;;;;12.63;11.43;;;23.10;70.10;;;;;;5011454;28;20034;-48
2022/09/07 12:31:45;;;;;;;11.52;10.63;;;23.00;70.80;;;;;;5010921;28;20026;-46
2022/09/07 12:34:29;;;;;;;12.02;10.93;;;23.00;71.00;;;;;;5010652;28;20411;-47
2022/09/07 12:37:19;;;;;;;11.68;10.68;;;23.00;70.20;;;;;;5011314;28;20030;-47
2022/09/07 12:39:45;;;;;;;10.75;9.75;;;23.00;70.00;;;;;;5005239;28;20071;-46
2022/09/07 12:42:12;;;;;;;10.60;9.73;;;23.20;71.00;;;;;;5026957;28;20545;-47
2022/09/07 12:44:38;;;;;;;11.13;10.23;;;23.30;70.20;;;;;;5008471;28;20405;-49
2022/09/07 12:47:28;;;;;;;10.20;9.32;;;23.40;69.30;;;;;;5010433;28;20366;-46
2022/09/07 12:50:05;;;;;;;12.25;11.15;;;23.40;69.50;;;;;;5008273;28;20494;-48
2022/09/07 12:52:33;;;;;;;13.13;11.88;;;23.30;69.60;;;;;;5008833;28;20040;-46
2022/09/07 12:55:23;;;;;;;13.50;12.15;;;23.20;69.90;;;;;;5010474;28;20030;-46
2022/09/07 12:57:57;;;;;;;11.25;10.15;;;23.10;69.70;;;;;;5010958;28;20030;-46
2022/09/07 13:00:48;;;;;;;13.35;12.15;;;23.20;70.60;;;;;;5000665;28;20017;-47
2022/09/07 13:03:26;;;;;;;14.13;12.93;;;23.20;70.30;;;;;;5008937;28;20018;-47
2022/09/07 13:06:12;;;;;;;11.90;10.82;;;23.30;69.90;;;;;;5011054;28;20033;-49
2022/09/07 13:09:09;;;;;;;13.05;11.85;;;23.20;71.00;;;;;;5026963;28;20454;-47
2022/09/07 13:11:37;;;;;;;13.73;12.43;;;23.20;71.20;;;;;;5011237;28;20044;-47
2022/09/07 13:14:16;;;;;;;13.18;11.98;;;23.20;71.00;;;;;;5025937;28;20108;-48
2022/09/07 13:16:47;;;;;;;10.85;9.95;;;23.10;71.00;;;;;;5011695;28;20104;-47